Weather observations for the past three days for
Eagles Nest Airport
Metric (Imperial)
Date Time (edt) Wind (kph) Vis. (km) Weather Sky Cond. Temperature (ºC) Relative Humidity Wind Chill (°C) Heat Index (°C) Pressure Precipitation (cm)
Air Dwpt 6 hour altimeter (cm) sea level (mb) 1 hr 3 hr 6 hr
Max. Min.
03 18:15 SW 11 16.09 Fair CLR 16.4 -6.2 21% 76.1 0.0
03 17:55 SW 7 16.09 Fair CLR 16.5 -6.1 21% 76.1 0.0
03 17:35 SW 15 16.09 Fair CLR 16.3 -6.3 21% 76.1 0.0
03 17:15 SW 11 16.09 Fair CLR 16.4 -5.8 21% 76.1 0.0
03 16:55 Calm 16.09 Fair CLR 16.1 -5.5 22% 76.12 0.0
03 16:35 NW 11 16.09 Fair CLR 16 -6.8 20% 76.12 0.0
03 16:15 W 15 16.09 Fair CLR 16.2 -5.1 23% 76.15 0.0
03 15:55 W 11 16.09 Fair CLR 15.9 -4.4 25% 76.17 0.0
03 15:15 Calm 16.09 Fair CLR 14.9 -4.9 25% 76.2 0.0
03 14:55 SW 9 16.09 Fair CLR 14.5 -5.1 26% 76.23 0.0
03 14:35 W 9 16.09 Fair CLR 13.9 -5.1 27% 76.25 0.0
03 14:15 W 6 16.09 Fair CLR 14 -3.9 29% 76.28 0.0
03 13:55 SW 11 16.09 Fair CLR 13.4 -4.1 13.6 5.6 30% 76.28 0.0
03 13:35 W 7 16.09 Fair CLR 12.6 -4.3 31% 76.28 0.0
03 13:15 W 13 16.09 Partly Cloudy SCT065 12.5 -4.9 30% 76.3 0.0
03 12:55 SW 15 16.09 Partly Cloudy SCT065 11.8 -3.9 33% 76.33 0.0
03 12:35 W 9 16.09 Mostly Cloudy BKN065 11 -4.1 35% 76.35 0.0
03 12:15 SW 11 16.09 Partly Cloudy SCT065 10.4 -4.5 35% 76.38 0.0
03 11:55 W 9 16.09 Fair CLR 10.1 -5.4 33% 76.38 0.0
03 11:35 N 6 16.09 Partly Cloudy SCT055 9.2 -4.8 37% 76.4 0.0
03 11:15 NW 9 16.09 Partly Cloudy SCT055 8.8 -5.1 37% 8 76.4 0.0
03 10:55 SW 7 16.09 Partly Cloudy SCT055 8.8 -4.5 39% 8 76.4 0.0
03 10:35 NW 9 16.09 Fair CLR 8.2 -5.2 39% 7 76.4 0.0
03 10:15 W 9 16.09 Fair CLR 8.1 -4.9 40% 7 76.4 0.0
03 09:55 N 7 16.09 Fair CLR 7.4 -5 41% 6 76.4 0.0
03 09:35 NW 13 16.09 Partly Cloudy SCT049 7.1 -4.5 44% 5 76.38 0.0
03 09:15 NW 9 16.09 Partly Cloudy SCT049 6.3 -4.4 47% 5 76.4 0.0
03 08:55 NW 9 16.09 Fair CLR 6.3 -5.1 44% 5 76.38 0.0
03 08:35 NW 11 16.09 Fair CLR 6.1 -4.6 47% 4 76.38 0.0
03 08:15 NW 7 16.09 Fair CLR 5.9 -3.5 51% 5 76.38 0.0
03 07:55 Calm 16.09 Partly Cloudy SCT050 5.5 -3.7 6.1 3.6 52% 76.35 0.0
03 07:35 Calm 16.09 Mostly Cloudy BKN050 4.5 -3.8 55% 76.35 0.0
03 07:15 N 6 16.09 Overcast OVC050 4.4 -3.9 55% 76.33 0.0
03 06:55 Calm 16.09 Mostly Cloudy BKN060 3.7 -4.1 57% 76.3 0.0
03 06:35 W 6 16.09 Partly Cloudy SCT060 3.7 -4.7 55% 76.23 0.0
03 06:15 W 9 16.09 Mostly Cloudy BKN060 4.2 -4.8 52% 2 76.2 0.0
03 05:55 Calm 16.09 Mostly Cloudy BKN060 4.5 -5 51% 76.17 0.0
03 05:35 NW 6 16.09 Partly Cloudy SCT060 4.6 -4.9 51% 76.17 0.0
03 05:15 W 9 16.09 Partly Cloudy SCT060 4.6 -5 50% 3 76.17 0.0
03 04:55 NW 6 16.09 Partly Cloudy SCT060 5.1 -5.2 48% 76.17 0.0
03 04:35 NW 9 16.09 Partly Cloudy SCT070 5.2 -5 48% 3 76.15 0.0
03 04:15 NW 11 16.09 Partly Cloudy SCT070 5.6 -4.9 47% 3 76.15 0.0
03 03:55 NW 7 16.09 Mostly Cloudy SCT055 BKN070 5.5 -3.7 52% 4 76.15 0.0
03 03:35 NW 7 16.09 Overcast OVC055 6.1 -3.1 52% 5 76.12 0.0
03 03:15 NW 11 16.09 Overcast OVC055 5.9 -3 53% 4 76.12 0.0
03 02:55 NW 7 16.09 Mostly Cloudy BKN065 5.5 -2.9 55% 4 76.12 0.0
03 02:35 NW 6 16.09 Fair CLR 5.4 -3.1 55% 76.12 0.0
03 02:15 NW 6 16.09 Fair CLR 4.5 -2.7 60% 76.12 0.0
03 01:55 Calm 16.09 Fair CLR 4.6 -2.7 11.2 4.6 59% 76.12 0.0
03 01:35 Calm 16.09 Fair CLR 5 -2.9 57% 76.12 0.0
03 01:15 Calm 16.09 Fair CLR 5.1 -2.7 57% 76.1 0.0
03 00:55 Calm 16.09 Partly Cloudy SCT085 6.5 -3.3 50% 76.1 0.0
03 00:35 W 6 16.09 Mostly Cloudy BKN085 6.8 -3.2 49% 76.1 0.0
03 00:15 Calm 16.09 Mostly Cloudy BKN085 7.2 -3.4 47% 76.12 0.0
02 23:55 Calm 16.09 Mostly Cloudy BKN085 7.6 -3.6 45% 76.1 0.0
02 23:35 NW 6 16.09 Overcast OVC085 8.4 -4 42% 76.1 0.0
02 23:15 NW 9 16.09 Overcast OVC075 9 -4.3 39% 8 76.07 0.0
02 22:55 Calm 16.09 Overcast OVC075 9.2 -4.1 39% 76.1 0.0
02 22:35 NW 6 16.09 Overcast OVC075 9.5 -4.5 37% 76.1 0.0
02 22:15 Calm 16.09 Overcast OVC075 9.7 -4.6 36% 76.07 0.0
02 21:55 NW 6 16.09 Overcast OVC075 10 -4.9 35% 76.07 0.0
02 21:35 W 7 16.09 Overcast OVC075 10.2 -5 34% 76.07 0.0
02 21:15 W 7 16.09 Overcast OVC075 10.4 -5 34% 76.05 0.0
02 20:55 W 7 16.09 Overcast OVC075 10.5 -5.2 33% 76.02 0.0
02 20:35 W 9 16.09 Overcast OVC075 10.7 -5.1 33% 76 0.0
02 20:15 NW 9 16.09 Overcast OVC075 11.1 -4.8 33% 75.97 0.0
02 19:55 Calm 16.09 Overcast OVC075 11.2 -1.5 14.6 11.2 42% 75.95 0.0
02 19:35 N 7 16.09 Overcast OVC075 11.6 -1.6 40% 75.92 0.0
02 19:15 N 7 16.09 Overcast OVC075 12 -1.6 39% 75.92 0.0
02 18:55 N 13 16.09 Overcast SCT075 OVC085 12.2 -2 37% 75.9 0.0
02 18:35 N 13 16.09 Overcast OVC075 12.5 -1.9 37% 75.9 0.0
02 18:15 N 11 16.09 Overcast OVC075 12.8 -1.2 38% 75.9 0.0
02 17:55 N 13 16.09 Overcast OVC075 13 -1.4 37% 75.87 0.0
02 17:35 N 11 16.09 Overcast BKN075 OVC090 13 -1.1 38% 75.84 0.0
02 17:15 NE 11 16.09 Overcast OVC075 13.2 -1.2 37% 75.84 0.0
02 16:55 NE 6 16.09 Overcast OVC080 13.5 -1.5 36% 75.84 0.0
02 16:35 NE 11 16.09 Overcast SCT070 OVC080 13.6 -1.9 34% 75.84 0.0
02 16:15 Calm 16.09 Overcast BKN070 OVC080 13.9 -2 34% 75.84 0.0
02 15:55 Calm 16.09 Overcast OVC070 13.6 -2.3 33% 75.87 0.0
02 15:35 N 9 16.09 Overcast OVC070 13.8 -1.2 36% 75.9 0.0
02 15:15 N 6 16.09 Overcast OVC075 14.3 -1.2 35% 75.9 0.0
02 14:55 N 7 16.09 Mostly Cloudy BKN075 14.2 -1.3 35% 75.92 0.0
02 14:35 NW 6 16.09 Mostly Cloudy SCT060 BKN075 13.7 -1.8 34% 75.95 0.0
02 14:15 NE 7 16.09 Overcast OVC060 13.2 -1.3 37% 75.97 0.0
02 13:35 N 6 16.09 Mostly Cloudy BKN070 12.7 -0.8 40% 76 0.0
02 13:15 E 11 16.09 Fair CLR 12.6 -1 39% 76.02 0.0
02 12:55 Calm 16.09 Partly Cloudy SCT050 11.9 -1.7 39% 76.05 0.0
02 12:35 E 6 16.09 Partly Cloudy SCT050 11.9 -1 41% 76.07 0.0
02 12:15 N 11 16.09 Partly Cloudy SCT050 11.7 -0.8 42% 76.07 0.0
02 11:55 NE 6 16.09 Partly Cloudy SCT050 11.2 -1.1 43% 76.07 0.0
02 11:35 N 11 16.09 Partly Cloudy SCT050 10.8 -0.8 45% 76.07 0.0
02 11:15 N 11 16.09 Partly Cloudy SCT048 10.7 -1.3 44% 76.07 0.0
02 10:55 N 7 16.09 Partly Cloudy SCT046 10.2 -0.4 48% 76.1 0.0
02 10:35 N 11 16.09 Fair CLR 9.8 -1 47% 8 76.1 0.0
02 10:15 NW 6 16.09 Fair CLR 9.2 -0.6 51% 76.12 0.0
02 09:55 NW 7 16.09 Fair CLR 8.6 -0.7 52% 8 76.1 0.0
02 09:35 N 6 16.09 Fair CLR 8.4 -0.1 55% 76.07 0.0
02 09:15 N 7 16.09 Fair CLR 8.1 0.1 57% 7 76.1 0.0
02 08:55 N 9 16.09 Fair CLR 7.5 -0.1 59% 6 76.1 0.0
02 08:35 N 7 16.09 Fair CLR 7.5 -0.1 59% 6 76.07 0.0
02 08:15 N 7 16.09 Fair CLR 7.5 -0.6 57% 6 76.05 0.0
02 07:55 N 7 16.09 Fair CLR 7.6 -0.5 10.5 6.9 57% 7 76.07 0.0
02 07:35 N 6 16.09 Fair CLR 7.1 -0.7 58% 76.07 0.0
02 07:15 Calm 16.09 Fair CLR 7 -0.6 59% 76.07 0.0
02 06:55 NW 11 16.09 Partly Cloudy SCT075 7 -0.7 58% 5 76.07 0.0
02 06:35 NW 9 16.09 Partly Cloudy SCT075 7.4 -0.7 57% 6 76.07 0.0
02 06:15 NW 11 16.09 Partly Cloudy SCT075 7.9 -0.7 55% 6 76.07 0.0
02 05:55 N 11 16.09 Mostly Cloudy BKN075 8.3 0 56% 7 76.07 0.0
02 05:35 Calm 16.09 Mostly Cloudy SCT075 BKN080 9 -1.2 49% 76.07 0.0
02 05:15 NW 7 16.09 Partly Cloudy SCT075 8.8 0 54% 8 76.05 0.0
02 04:55 Calm 16.09 Mostly Cloudy BKN075 9 0.5 56% 76.02 0.0
02 04:35 N 6 16.09 Mostly Cloudy BKN075 9.2 1.2 58% 76.02 0.0
02 04:15 NW 6 16.09 Overcast OVC075 9.3 1.9 60% 76.02 0.0
02 03:55 NW 9 16.09 Overcast OVC075 9.5 2 60% 8 76.02 0.0
02 03:35 NW 7 16.09 Overcast SCT065 OVC075 9.4 1.9 60% 9 76 0.0
02 03:15 N 6 16.09 Mostly Cloudy BKN065 BKN075 9.6 1.7 58% 76 0.0
02 02:55 Calm 16.09 Partly Cloudy SCT055 10 1.7 57% 76.02 0.0
02 02:35 N 9 16.09 Overcast BKN055 OVC085 10.2 1.7 56% 76.02 0.0
02 02:15 Calm 16.09 Overcast SCT055 BKN075 OVC085 10.5 1.8 55% 76.05 0.0
02 01:55 N 6 16.09 Overcast SCT055 OVC085 10.6 2 15.7 10.6 56% 76.05 0.0
02 01:35 N 13 16.09 Overcast SCT055 OVC075 10.8 1.8 54% 76.05 0.0
02 01:15 N 13 16.09 Overcast SCT048 BKN055 OVC070 11.1 2.1 54% 76.05 0.0
02 00:55 N 11 16.09 Overcast SCT048 OVC055 11.5 2.7 55% 76.05 0.0
02 00:35 N 11 16.09 Overcast BKN065 OVC075 12 3.2 55% 76.05 0.0
02 00:15 N 11 16.09 Overcast BKN075 OVC085 12.5 3.8 56% 76.02 0.0
01 23:55 N 9 16.09 Overcast OVC090 13 3.6 53% 76 0.0
01 23:35 N 9 16.09 Overcast SCT055 BKN090 OVC110 13.3 3.4 51% 75.97 0.0
01 23:15 N 7 16.09 Overcast SCT055 BKN070 OVC110 13.4 3.5 51% 75.95 0.0
01 22:55 NW 11 16.09 Overcast SCT070 OVC100 13.6 3.9 52% 75.95 0.0
01 22:35 W 6 16.09 Overcast SCT070 OVC100 13.6 3.6 51% 75.9 0.0
01 22:15 Calm 16.09 Mostly Cloudy SCT070 BKN100 13.1 3.6 53% 75.9 0.0
01 21:55 Calm 16.09 Mostly Cloudy BKN100 13.7 3.5 50% 75.87 0.0
01 21:35 Calm 16.09 Mostly Cloudy BKN100 14 3.5 49% 75.87 0.0
01 21:15 SW 9 16.09 Partly Cloudy SCT100 14.7 3.2 46% 75.84 0.0
01 20:55 S 13 16.09 Partly Cloudy SCT110 15 3 45% 75.79 0.0
01 20:35 SW 11 16.09 Partly Cloudy SCT110 15 3 45% 75.79 0.0
01 20:15 S 13 16.09 Fair CLR 15.3 2.6 43% 75.77 0.0
01 19:55 S 13 16.09 Fair CLR 15.8 2.2 18.9 15.8 40% 75.77 0.0
01 19:35 S 15 16.09 Fair CLR 16.6 2.5 39% 75.77 0.0
01 19:15 S 19 16.09 Fair CLR 17.1 2.5 38% 75.74 0.0
01 18:55 S 15 G 28 16.09 Fair CLR 17.3 1.8 35% 75.74 0.0
01 18:35 S 15 16.09 Fair CLR 17.7 1.9 35% 75.74 0.0
01 18:15 S 19 G 28 16.09 Fair CLR 18 2 34% 75.74 0.0
01 17:55 S 11 G 31 16.09 Fair CLR 18 1.5 33% 75.77 0.0
01 17:35 S 19 G 30 16.09 Partly Cloudy SCT080 18.4 1.2 32% 75.77 0.0
01 17:15 S 19 G 31 16.09 Partly Cloudy SCT080 18.7 1.6 32% 75.77 0.0
01 16:55 SW 17 G 28 16.09 Fair CLR 18.6 1.5 32% 75.77 0.0
01 16:35 S 11 16.09 Fair CLR 18.3 1.7 33% 75.82 0.0
01 16:15 S 13 16.09 Fair CLR 18 1.5 33% 75.82 0.0
01 15:55 S 20 G 28 16.09 Fair CLR 17.5 1.5 34% 75.84 0.0
01 15:35 S 19 G 31 16.09 Fair CLR 17.5 1.1 33% 75.87 0.0
01 15:15 SE 15 G 30 16.09 Fair CLR 17.9 1.9 34% 75.9 0.0
01 14:55 S 15 G 30 16.09 Fair CLR 17.2 1.3 34% 75.92 0.0
01 14:35 S 19 G 30 16.09 Fair CLR 17.2 0.8 33% 75.95 0.0
01 14:15 S 20 G 30 16.09 Fair CLR 16.7 0.6 34% 75.95 0.0
01 13:55 S 13 G 30 16.09 Fair CLR 16.5 0.3 16.6 6.6 34% 75.97 0.0
01 13:35 S 11 16.09 Fair CLR 16.2 0.6 35% 76 0.0
01 13:15 S 17 G 28 16.09 Fair CLR 15.6 0.7 37% 76 0.0
01 12:55 S 13 G 26 16.09 Fair CLR 15.4 -0.3 34% 76 0.0
01 12:35 SE 9 16.09 Fair CLR 14.7 0.1 37% 76.05 0.0
01 12:15 S 15 16.09 Fair CLR 14.4 -0.1 37% 76.07 0.0
01 11:55 SE 13 16.09 Fair CLR 14.1 0.9 41% 76.1 0.0
01 11:35 S 13 16.09 Fair CLR 13.5 1.5 44% 76.12 0.0
01 11:15 SW 6 16.09 Fair CLR 13.4 1.5 45% 76.15 0.0
01 10:55 N 7 16.09 Fair CLR 12.3 1.4 48% 76.15 0.0
01 10:35 SW 6 16.09 Fair CLR 12.4 1.1 46% 76.17 0.0
01 10:15 Calm 16.09 Fair CLR 11.7 0.4 46% 76.17 0.0
01 09:55 SW 7 16.09 Fair CLR 11.2 0.7 49% 76.17 0.0
01 09:35 E 6 16.09 Fair CLR 10.4 0 49% 76.17 0.0
01 09:15 S 9 16.09 Fair CLR 10 0.8 53% 9 76.17 0.0
01 08:55 S 7 16.09 Fair CLR 9.8 1.6 57% 9 76.17 0.0
01 08:35 S 7 16.09 Fair CLR 8.7 1.9 63% 8 76.17 0.0
01 08:15 Calm 16.09 Fair CLR 7.6 1.6 66% 76.17 0.0
01 07:55 Calm 16.09 Fair CLR 6.3 2.4 7.1 4 76% 76.17 0.0
01 07:35 Calm 16.09 Fair CLR 5.5 2.3 80% 76.17 0.0
01 07:15 Calm 16.09 Fair CLR 4.1 1.8 85% 76.17 0.0
01 06:55 Calm 16.09 Fair CLR 4.1 1.7 85% 76.15 0.0
01 06:35 Calm 16.09 Fair CLR 4.1 1.4 83% 76.15 0.0
01 06:15 Calm 16.09 Fair CLR 4.2 1.3 82% 76.15 0.0
01 05:55 SW 7 16.09 Fair CLR 4.3 1.5 82% 3 76.15 0.0
01 05:35 Calm 16.09 Fair CLR 4.8 1.2 78% 76.15 0.0
01 05:15 SE 6 16.09 Fair CLR 5.4 0.8 73% 76.15 0.0
01 04:55 Calm 16.09 Fair CLR 6 0.5 68% 76.17 0.0
01 04:35 Calm 16.09 Fair CLR 6.5 0.3 65% 76.15 0.0
01 04:15 NW 9 16.09 Fair CLR 6.2 0.4 67% 5 76.15 0.0
01 03:55 NW 9 16.09 Fair CLR 6.3 0.5 67% 5 76.15 0.0
01 03:35 NW 7 16.09 Fair CLR 7 0.3 63% 6 76.15 0.0
01 03:15 W 6 16.09 Fair CLR 6.7 0.5 65% 76.17 0.0
01 02:55 W 7 16.09 Fair CLR 6.8 0.6 65% 6 76.17 0.0
01 02:35 NW 6 16.09 Fair CLR 6.9 0.7 65% 76.17 0.0
01 02:15 W 6 16.09 Fair CLR 7 0.7 65% 76.17 0.0
01 01:55 W 6 16.09 Fair CLR 7.1 0.7 13 5.9 64% 76.17 0.0
01 01:35 Calm 16.09 Fair CLR 7.6 0.6 62% 76.17 0.0
01 01:15 Calm 16.09 Fair CLR 7.3 1 65% 76.17 0.0
01 00:55 Calm 16.09 Fair CLR 7.7 0.6 61% 76.17 0.0
01 00:35 NW 6 16.09 Fair CLR 7.7 1 63% 76.15 0.0
01 00:15 NW 6 16.09 Fair CLR 7.4 1.6 67% 76.15 0.0
30 23:55 Calm 16.09 Fair CLR 6 2.2 77% 76.15 0.0
30 23:35 Calm 16.09 Fair CLR 6.7 2.3 74% 76.15 0.0
30 23:15 Calm 16.09 Fair CLR 6.8 2.3 73% 76.15 0.0
30 22:55 Calm 16.09 Partly Cloudy SCT070 7.8 2.2 68% 76.15 0.0
30 22:35 Calm 16.09 Partly Cloudy SCT070 8.6 2 64% 76.15 0.0
30 22:15 NW 7 16.09 Partly Cloudy SCT075 9.1 2 61% 8 76.12 0.0
30 21:55 N 9 16.09 Partly Cloudy SCT075 9.3 2 61% 8 76.1 0.0
30 21:35 N 9 16.09 Fair CLR 10 1.7 57% 9 76.07 0.0
30 21:15 N 13 16.09 Partly Cloudy SCT070 10.7 1.6 54% 76.02 0.0
30 20:55 N 9 16.09 Partly Cloudy SCT070 11.1 1.8 53% 76.02 0.0
30 20:35 N 9 16.09 Fair CLR 11.5 1.8 52% 75.97 0.0
30 20:15 N 11 16.09 Fair CLR 12.5 0.7 45% 75.95 0.0
30 19:55 NW 11 16.09 Fair CLR 13.1 -0.1 18.1 13.1 41% 75.95 0.0
30 19:35 NW 17 16.09 Fair CLR 13.9 -0.5 37% 75.9 0.0
30 19:15 N 17 G 26 16.09 Partly Cloudy SCT070 14.5 -0.3 37% 75.9 0.0
30 18:55 N 15 16.09 Partly Cloudy SCT070 15.1 -0.3 35% 75.87 0.0
30 18:35 NW 15 G 26 16.09 Fair CLR 15.7 -0.6 33% 75.87 0.0
Date Time (edt) Wind (kph) Vis. (km) Weather Sky Cond. Air Dwpt Max. Min. Relative Humidity Wind Chill (°C) Heat Index (°C) altimeter (cm) sea level (mb) 1 hr 3 hr 6 hr
6 hour
Temperature (ºC) Pressure Precipitation (cm)